sensor_id;sensor_type;location;lat;lon;timestamp;P1;durP1;ratioP1;P2;durP2;ratioP2
50563;SDS011;36514;52.590;21.448;2023-03-23T07:29:17;20.52;;;12.45;;
50563;SDS011;36514;52.590;21.448;2023-03-23T07:39:22;23.20;;;14.45;;
50563;SDS011;36514;52.590;21.448;2023-03-23T07:49:27;17.46;;;13.09;;
50563;SDS011;36514;52.590;21.448;2023-03-23T07:59:24;13.43;;;7.70;;
50563;SDS011;36514;52.590;21.448;2023-03-23T08:09:24;10.18;;;8.25;;
50563;SDS011;36514;52.590;21.448;2023-03-23T08:19:23;10.68;;;7.18;;
50563;SDS011;36514;52.590;21.448;2023-03-23T08:29:22;12.87;;;8.25;;
50563;SDS011;36514;52.590;21.448;2023-03-23T08:39:17;21.00;;;7.45;;
50563;SDS011;36514;52.590;21.448;2023-03-23T08:49:18;12.18;;;8.73;;
50563;SDS011;36514;52.590;21.448;2023-03-23T08:58:57;8.52;;;5.72;;
50563;SDS011;36514;52.590;21.448;2023-03-23T09:08:46;14.93;;;5.92;;
50563;SDS011;36514;52.590;21.448;2023-03-23T09:18:37;8.05;;;5.42;;
50563;SDS011;36514;52.590;21.448;2023-03-23T09:28:32;11.30;;;5.47;;
50563;SDS011;36514;52.590;21.448;2023-03-23T09:38:27;9.88;;;4.47;;
50563;SDS011;36514;52.590;21.448;2023-03-23T09:48:33;8.61;;;4.74;;
50563;SDS011;36514;52.590;21.448;2023-03-23T09:58:35;7.17;;;3.37;;
50563;SDS011;36514;52.590;21.448;2023-03-23T10:08:32;9.49;;;3.68;;
50563;SDS011;36514;52.590;21.448;2023-03-23T10:18:36;6.55;;;2.14;;
50563;SDS011;36514;52.590;21.448;2023-03-23T10:28:37;7.55;;;2.35;;
50563;SDS011;36514;52.590;21.448;2023-03-23T10:39:10;4.75;;;2.63;;
50563;SDS011;36514;52.590;21.448;2023-03-23T10:49:11;5.08;;;3.06;;
50563;SDS011;36514;52.590;21.448;2023-03-23T11:09:15;7.35;;;2.58;;
50563;SDS011;36514;52.590;21.448;2023-03-23T11:19:12;16.74;;;3.39;;
50563;SDS011;36514;52.590;21.448;2023-03-23T11:29:30;3.58;;;1.58;;
50563;SDS011;36514;52.590;21.448;2023-03-23T11:39:26;2.97;;;1.88;;
50563;SDS011;36514;52.590;21.448;2023-03-23T11:59:42;2.30;;;1.52;;
50563;SDS011;36514;52.590;21.448;2023-03-23T12:50:38;3.40;;;1.20;;
50563;SDS011;36514;52.590;21.448;2023-03-23T13:00:25;3.25;;;1.92;;
50563;SDS011;36514;52.590;21.448;2023-03-23T13:10:20;8.51;;;2.05;;
50563;SDS011;36514;52.590;21.448;2023-03-23T13:29:58;4.74;;;2.24;;
50563;SDS011;36514;52.590;21.448;2023-03-23T13:39:55;2.28;;;1.60;;
50563;SDS011;36514;52.590;21.448;2023-03-23T13:49:49;5.97;;;1.60;;
50563;SDS011;36514;52.590;21.448;2023-03-23T13:59:48;5.88;;;2.06;;
50563;SDS011;36514;52.590;21.448;2023-03-23T14:09:45;3.98;;;1.48;;
50563;SDS011;36514;52.590;21.448;2023-03-23T14:19:42;4.34;;;1.84;;
50563;SDS011;36514;52.590;21.448;2023-03-23T14:29:37;2.92;;;1.48;;
50563;SDS011;36514;52.590;21.448;2023-03-23T14:39:34;7.37;;;3.56;;
50563;SDS011;36514;52.590;21.448;2023-03-23T14:49:31;8.12;;;4.59;;
50563;SDS011;36514;52.590;21.448;2023-03-23T14:59:27;11.49;;;5.55;;
50563;SDS011;36514;52.590;21.448;2023-03-23T15:09:23;13.25;;;3.95;;
50563;SDS011;36514;52.590;21.448;2023-03-23T15:29:21;7.08;;;4.12;;
50563;SDS011;36514;52.590;21.448;2023-03-23T15:39:22;6.10;;;3.18;;
50563;SDS011;36514;52.590;21.448;2023-03-23T15:49:15;6.22;;;4.05;;
50563;SDS011;36514;52.590;21.448;2023-03-23T15:59:07;14.55;;;4.43;;
50563;SDS011;36514;52.590;21.448;2023-03-23T16:09:05;16.82;;;7.82;;
50563;SDS011;36514;52.590;21.448;2023-03-23T16:19:01;21.46;;;10.31;;
50563;SDS011;36514;52.590;21.448;2023-03-23T16:28:59;24.39;;;13.95;;
50563;SDS011;36514;52.590;21.448;2023-03-23T16:38:50;11.27;;;4.88;;
50563;SDS011;36514;52.590;21.448;2023-03-23T16:58:18;12.93;;;7.05;;
50563;SDS011;36514;52.590;21.448;2023-03-23T21:27:36;14.35;;;6.88;;
50563;SDS011;36514;52.590;21.448;2023-03-23T21:37:34;12.25;;;6.65;;
50563;SDS011;36514;52.590;21.448;2023-03-23T21:47:30;9.98;;;5.66;;
50563;SDS011;36514;52.590;21.448;2023-03-23T21:57:23;10.35;;;6.80;;
50563;SDS011;36514;52.590;21.448;2023-03-23T22:07:17;7.55;;;4.93;;
50563;SDS011;36514;52.590;21.448;2023-03-23T22:17:19;8.84;;;4.55;;
50563;SDS011;36514;52.590;21.448;2023-03-23T22:27:20;6.70;;;3.65;;
50563;SDS011;36514;52.590;21.448;2023-03-23T22:37:14;4.80;;;2.83;;
50563;SDS011;36514;52.590;21.448;2023-03-23T22:47:06;5.75;;;3.85;;
